»·PEaware :: ASA380 KSEA-KSAN

ASA380 :: KSEA-KSAN

FLIGHT INFORMATION

Flight Status: Arrived
Operator:
Alaska Airlines
More flights by this operator :: More flights under this callsign
Pilot: Colin A. (19898)
Aircraft: BOEING 737-700
(B737)
More flights by this aircraft type
Origin: KSEA Seattle-Tacoma Intl
United States
Destination: KSAN San Diego Intl-Lindbergh
United States
More flights between these airports :: More routes between these airports
Route: +SUMMA1 SUMMA PAAGE Q11 PASKE HUULK COMIX2
File this flight plan on PilotEdge
Remarks: PBN / A1B1C1D1S1S2 DOF / 180729 REG / N714SB EET / KZOA0059 KZLA0140 OPR / ASA PER / C RMK / TCAS SIMBRIEF
Altitude:
(Current/Filed)
39,000ft
Speed:
(Current/Filed)
457kts
Departed: 28-Jul-18 07:01 PM
Arrived: 28-Jul-18 09:22 PM
Distance/Time
Traveled:
913nm/2:21
Distance/Time
To Go:
Arrived

Flight Plot

Page will automatically refresh every two minutes.

Flight plan parsing failed; only flown route is shown


Map Options




Map Legend


Flown Route
Filed Route
Departure Airport
Arrival Airport
Navaid (VOR, NDB)
Fix

Horizontal Profiles

Position Reports

Time Latitude Longitude Heading Altitude Ground
Speed
28-Jul-18 18:50 47.447555 -122.302139 37 440ft 0kts
28-Jul-18 18:51 47.447555 -122.302139 37 440ft 0kts
28-Jul-18 18:52 47.447555 -122.302139 37 440ft 0kts
28-Jul-18 18:53 47.447470 -122.302234 34 440ft 2kts
28-Jul-18 18:54 47.446923 -122.302316 313 440ft 2kts
28-Jul-18 18:55 47.446897 -122.302277 313 440ft 0kts
28-Jul-18 18:56 47.446897 -122.302277 313 440ft 0kts
28-Jul-18 18:57 47.446897 -122.302277 313 440ft 0kts
28-Jul-18 18:58 47.448330 -122.306102 0 440ft 17kts
28-Jul-18 18:59 47.454891 -122.306150 1 440ft 22kts
28-Jul-18 19:00 47.461843 -122.306202 0 440ft 29kts
28-Jul-18 19:01 47.463426 -122.306642 278 440ft 0kts
28-Jul-18 19:02 47.446183 -122.308040 181 700ft 163kts
28-Jul-18 19:03 47.393354 -122.308418 181 3409ft 216kts
28-Jul-18 19:04 47.325282 -122.309070 181 5550ft 269kts
28-Jul-18 19:05 47.245303 -122.308604 173 8838ft 301kts
28-Jul-18 19:06 47.167381 -122.255000 148 11828ft 333kts
28-Jul-18 19:07 47.076203 -122.192962 162 14213ft 377kts
28-Jul-18 19:08 46.973966 -122.148246 163 17395ft 390kts
28-Jul-18 19:09 46.868211 -122.100651 162 20126ft 405kts
28-Jul-18 19:10 46.758247 -122.051161 162 22493ft 421kts
28-Jul-18 19:11 46.645248 -121.999355 156 23336ft 430kts
28-Jul-18 19:12 46.547590 -121.900952 137 24831ft 431kts
28-Jul-18 19:13 46.455905 -121.786921 139 25989ft 439kts
28-Jul-18 19:14 46.341062 -121.723088 167 26944ft 453kts
28-Jul-18 19:15 46.216048 -121.690549 167 27759ft 459kts
28-Jul-18 19:16 46.089979 -121.657671 167 28479ft 464kts
28-Jul-18 19:17 45.962105 -121.624082 167 29075ft 468kts
28-Jul-18 19:18 45.833468 -121.590429 167 29616ft 471kts
28-Jul-18 19:19 45.704249 -121.556826 167 30254ft 470kts
28-Jul-18 19:20 45.575559 -121.523515 166 31019ft 471kts
28-Jul-18 19:21 45.447168 -121.490450 167 32600ft 467kts
28-Jul-18 19:22 45.319664 -121.457791 166 33934ft 465kts
28-Jul-18 19:23 45.193005 -121.425442 167 35124ft 463kts
28-Jul-18 19:24 45.066340 -121.393240 167 36188ft 461kts
28-Jul-18 19:25 44.940126 -121.361365 167 37139ft 460kts
28-Jul-18 19:26 44.814421 -121.329733 168 37972ft 459kts
28-Jul-18 19:27 44.688478 -121.298185 168 38739ft 458kts
28-Jul-18 19:28 44.562468 -121.266751 168 39066ft 466kts
28-Jul-18 19:29 44.432988 -121.234610 168 39070ft 476kts
28-Jul-18 19:30 44.302154 -121.202242 168 39088ft 477kts
28-Jul-18 19:31 44.175568 -121.171073 168 39074ft 457kts
28-Jul-18 19:32 44.049871 -121.140324 168 39088ft 458kts
28-Jul-18 19:33 43.924123 -121.109579 168 39089ft 459kts
28-Jul-18 19:34 43.798007 -121.078919 168 39089ft 459kts
28-Jul-18 19:35 43.672244 -121.048482 168 39088ft 459kts
28-Jul-18 19:36 43.546427 -121.018161 168 39084ft 459kts
28-Jul-18 19:37 43.420522 -120.987866 168 39082ft 459kts
28-Jul-18 19:38 43.294842 -120.957864 169 39081ft 459kts
28-Jul-18 19:39 43.169004 -120.928062 169 39082ft 458kts
28-Jul-18 19:40 43.043767 -120.897461 168 39083ft 458kts
28-Jul-18 19:41 42.918125 -120.866899 168 39084ft 458kts
28-Jul-18 19:42 42.792531 -120.836423 169 39085ft 458kts
28-Jul-18 19:43 42.666959 -120.806044 169 39087ft 458kts
28-Jul-18 19:44 42.541403 -120.775829 169 39088ft 457kts
28-Jul-18 19:45 42.415991 -120.745794 169 39089ft 457kts
28-Jul-18 19:46 42.290830 -120.715947 169 39089ft 457kts
28-Jul-18 19:47 42.165549 -120.686213 169 39089ft 457kts
28-Jul-18 19:48 42.061242 -120.661519 169 39087ft 457kts
28-Jul-18 19:49 41.936078 -120.632008 169 39083ft 456kts
28-Jul-18 19:50 41.810860 -120.602605 169 39076ft 456kts
28-Jul-18 19:51 41.686079 -120.573420 169 39067ft 456kts
28-Jul-18 19:52 41.561310 -120.544352 169 39061ft 456kts
28-Jul-18 19:53 41.415561 -120.510540 169 39060ft 455kts
28-Jul-18 19:54 41.311099 -120.486373 169 39063ft 455kts
28-Jul-18 19:55 41.186574 -120.457657 170 39062ft 455kts
28-Jul-18 19:56 41.061693 -120.429052 170 39062ft 455kts
28-Jul-18 19:57 40.937229 -120.396344 166 39061ft 455kts
28-Jul-18 19:58 40.814351 -120.357511 167 39057ft 454kts
28-Jul-18 19:59 40.691466 -120.319369 167 39056ft 453kts
28-Jul-18 20:00 40.568612 -120.281335 167 39054ft 452kts
28-Jul-18 20:01 40.446173 -120.243684 167 39053ft 452kts
28-Jul-18 20:02 40.323899 -120.206280 167 39059ft 452kts
28-Jul-18 20:03 40.201637 -120.169050 167 39071ft 451kts
28-Jul-18 20:04 40.079237 -120.131900 168 39085ft 450kts
28-Jul-18 20:05 39.956861 -120.094901 168 39098ft 450kts
28-Jul-18 20:06 39.835081 -120.058220 168 39116ft 451kts
28-Jul-18 20:07 39.712573 -120.021454 168 39130ft 451kts
28-Jul-18 20:08 39.590337 -119.984933 168 39135ft 449kts
28-Jul-18 20:09 39.468437 -119.948592 168 39140ft 449kts
28-Jul-18 20:10 39.346869 -119.912509 168 39151ft 448kts
28-Jul-18 20:11 39.225637 -119.876637 169 39152ft 447kts
28-Jul-18 20:12 39.104034 -119.840797 169 39147ft 446kts
28-Jul-18 20:13 38.983341 -119.805339 169 39142ft 446kts
28-Jul-18 20:14 38.862335 -119.769916 170 39149ft 445kts
28-Jul-18 20:15 38.741188 -119.734583 170 39144ft 445kts
28-Jul-18 20:16 38.620736 -119.699537 170 39133ft 445kts
28-Jul-18 20:17 38.500143 -119.664576 170 39129ft 444kts
28-Jul-18 20:18 38.379292 -119.629719 170 39130ft 445kts
28-Jul-18 20:19 38.258622 -119.595179 170 39131ft 444kts
28-Jul-18 20:20 38.137707 -119.560947 170 39137ft 445kts
28-Jul-18 20:21 38.016859 -119.526815 171 39130ft 445kts
28-Jul-18 20:22 37.896294 -119.492732 171 39122ft 443kts
28-Jul-18 20:23 37.775763 -119.458780 171 39116ft 442kts
28-Jul-18 20:24 37.656154 -119.425252 172 39107ft 442kts
28-Jul-18 20:25 37.536000 -119.391694 172 39086ft 440kts
28-Jul-18 20:26 37.416314 -119.358370 172 39079ft 440kts
28-Jul-18 20:27 37.297153 -119.325304 173 39102ft 438kts
28-Jul-18 20:28 37.177899 -119.292321 173 39117ft 438kts
28-Jul-18 20:29 37.059389 -119.259649 173 39123ft 436kts
28-Jul-18 20:30 36.940658 -119.227020 174 39131ft 436kts
28-Jul-18 20:31 36.822307 -119.194599 174 39133ft 435kts
28-Jul-18 20:32 36.703958 -119.162273 174 39129ft 435kts
28-Jul-18 20:33 36.585959 -119.130155 174 39129ft 434kts
28-Jul-18 20:34 36.467995 -119.098142 175 39124ft 434kts
28-Jul-18 20:35 36.349927 -119.066127 175 39125ft 433kts
28-Jul-18 20:36 36.232369 -119.034453 175 39125ft 432kts
28-Jul-18 20:37 36.114636 -119.002839 175 39128ft 431kts
28-Jul-18 20:38 35.997648 -118.971686 175 39128ft 431kts
28-Jul-18 20:39 35.880744 -118.940628 176 39124ft 429kts
28-Jul-18 20:40 35.764287 -118.909719 176 39118ft 428kts
28-Jul-18 20:41 35.647882 -118.878857 176 39105ft 427kts
28-Jul-18 20:42 35.531652 -118.848163 177 39101ft 427kts
28-Jul-18 20:43 35.415522 -118.817609 177 39102ft 427kts
28-Jul-18 20:44 35.299498 -118.787174 177 39107ft 426kts
28-Jul-18 20:45 35.183580 -118.756854 177 39116ft 426kts
28-Jul-18 20:46 35.067758 -118.726653 177 39131ft 425kts
28-Jul-18 20:47 34.951593 -118.696438 177 39132ft 426kts
28-Jul-18 20:48 34.835545 -118.666283 177 39141ft 426kts
28-Jul-18 20:49 34.719823 -118.636374 177 39146ft 425kts
28-Jul-18 20:50 34.604713 -118.604221 171 39131ft 433kts
28-Jul-18 20:51 34.494964 -118.535049 160 39116ft 450kts
28-Jul-18 20:52 34.386396 -118.457708 160 37843ft 451kts
28-Jul-18 20:53 34.278232 -118.380927 160 35946ft 452kts
28-Jul-18 20:54 34.175068 -118.307696 159 34048ft 454kts
28-Jul-18 20:55 34.065322 -118.230021 159 32045ft 459kts
28-Jul-18 20:56 33.954539 -118.152102 158 30048ft 464kts
28-Jul-18 20:57 33.842515 -118.073610 157 28052ft 468kts
28-Jul-18 20:58 33.730380 -117.999291 159 26046ft 441kts
28-Jul-18 20:59 33.626853 -117.931053 158 24049ft 410kts
28-Jul-18 21:00 33.530259 -117.867130 157 22420ft 387kts
28-Jul-18 21:01 33.438199 -117.802136 151 20814ft 386kts
28-Jul-18 21:02 33.357352 -117.716930 144 19213ft 384kts
28-Jul-18 21:03 33.278768 -117.632913 144 17616ft 374kts
28-Jul-18 21:04 33.202127 -117.551720 144 16013ft 363kts
28-Jul-18 21:05 33.126783 -117.474001 148 14414ft 351kts
28-Jul-18 21:06 33.047290 -117.408665 149 13129ft 352kts
28-Jul-18 21:07 32.972836 -117.346207 148 11273ft 317kts
28-Jul-18 21:08 32.904744 -117.289278 147 9675ft 279kts
28-Jul-18 21:09 32.842841 -117.237834 146 8346ft 267kts
28-Jul-18 21:10 32.807385 -117.166201 102 7057ft 255kts
28-Jul-18 21:11 32.793653 -117.087168 102 5766ft 238kts
28-Jul-18 21:12 32.780284 -117.011222 102 5066ft 232kts
28-Jul-18 21:13 32.766960 -116.935265 102 5059ft 235kts
28-Jul-18 21:14 32.753696 -116.859120 102 5062ft 235kts
28-Jul-18 21:15 32.737059 -116.784462 132 4986ft 233kts
28-Jul-18 21:16 32.691919 -116.809964 251 5101ft 223kts
28-Jul-18 21:17 32.672729 -116.880324 252 5062ft 225kts
28-Jul-18 21:18 32.675372 -116.951774 286 5074ft 226kts
28-Jul-18 21:19 32.692989 -117.022436 285 3903ft 212kts
28-Jul-18 21:20 32.708553 -117.087531 288 2905ft 198kts
28-Jul-18 21:21 32.722236 -117.144509 285 1080ft 154kts
28-Jul-18 21:22 32.732546 -117.185444 286 23ft 94kts
28-Jul-18 21:23 32.735370 -117.197441 284 23ft 18kts
28-Jul-18 21:24 32.734198 -117.196789 114 22ft 13kts
28-Jul-18 21:25 32.733737 -117.197744 255 23ft 0kts
28-Jul-18 21:26 32.733737 -117.197744 255 23ft 0kts

Navigation Log

Ident Type
Flight plan parsing failed, navigation log unavailable